Time;durP1;ratioP1;P1;durP2;ratioP2;P2;SDS_P1;SDS_P2;PMS_P1;PMS_P2;Temp;Humidity;BMP_temperature;BMP_pressure;BME280_temperature;BME280_humidity;BME280_pressure;Samples;Min_cycle;Max_cycle;Signal;HPM_P1;HPM_P2
2024/03/19 00:00:38;;;;;;;13.77;4.67;;;10.60;99.90;;;;;;7295481;19;20231;-79
2024/03/19 00:03:05;;;;;;;12.20;4.27;;;10.60;99.90;;;;;;7307277;19;20185;-80
2024/03/19 00:05:31;;;;;;;15.90;4.10;;;10.60;99.90;;;;;;7286165;19;20178;-79
2024/03/19 00:07:57;;;;;;;11.30;4.40;;;10.70;99.90;;;;;;7287055;19;20193;-80
2024/03/19 00:10:23;;;;;;;14.17;4.67;;;10.70;99.90;;;;;;7285534;19;20205;-80
2024/03/19 00:12:49;;;;;;;15.27;4.23;;;10.80;99.90;;;;;;7283477;19;20183;-81
2024/03/19 00:15:15;;;;;;;14.90;4.43;;;10.80;99.90;;;;;;7284568;19;20703;-79
2024/03/19 00:17:41;;;;;;;13.23;4.53;;;10.90;99.90;;;;;;7285306;19;20203;-79
2024/03/19 00:20:09;;;;;;;14.50;4.23;;;11.00;99.90;;;;;;7300023;19;20200;-80
2024/03/19 00:22:36;;;;;;;14.77;4.00;;;11.10;99.90;;;;;;7307364;19;20188;-80
2024/03/19 00:25:08;;;;;;;14.53;3.93;;;11.20;99.90;;;;;;7287094;19;20203;-79
2024/03/19 00:27:34;;;;;;;11.30;4.10;;;11.20;99.90;;;;;;7286659;19;20177;-80
2024/03/19 00:30:02;;;;;;;17.00;5.10;;;11.20;99.90;;;;;;7285530;19;20296;-80
2024/03/19 00:32:31;;;;;;;13.30;5.53;;;11.20;99.90;;;;;;7283490;19;20181;-80
2024/03/19 00:34:57;;;;;;;15.53;5.43;;;11.30;99.90;;;;;;7285344;19;20180;-80
2024/03/19 00:37:23;;;;;;;14.07;4.50;;;11.30;99.90;;;;;;7286604;19;20193;-80
2024/03/19 00:39:49;;;;;;;12.83;4.10;;;11.40;99.90;;;;;;7283448;19;20357;-79
2024/03/19 00:42:16;;;;;;;13.83;4.30;;;11.50;99.90;;;;;;7287464;19;20258;-79
2024/03/19 00:44:41;;;;;;;14.87;5.10;;;11.50;99.90;;;;;;7286164;19;20192;-80
2024/03/19 00:47:07;;;;;;;13.63;5.10;;;11.50;99.90;;;;;;7292121;19;20206;-80
2024/03/19 00:49:33;;;;;;;14.67;4.87;;;11.50;99.90;;;;;;7307511;19;20184;-80
2024/03/19 00:51:59;;;;;;;12.73;5.03;;;11.50;99.90;;;;;;7285482;19;20190;-80
2024/03/19 00:54:26;;;;;;;13.53;4.70;;;11.50;99.90;;;;;;7285523;19;20241;-80
2024/03/19 00:56:52;;;;;;;16.57;4.60;;;11.60;99.90;;;;;;7284711;19;20190;-79
2024/03/19 00:59:17;;;;;;;13.60;4.40;;;11.70;99.90;;;;;;7283729;19;20546;-79
2024/03/19 01:01:43;;;;;;;12.57;5.07;;;11.70;99.90;;;;;;7285005;19;20193;-79
2024/03/19 01:04:09;;;;;;;12.87;4.50;;;11.50;99.90;;;;;;7285953;19;20188;-79
2024/03/19 01:06:38;;;;;;;11.87;4.43;;;11.30;99.90;;;;;;7306762;19;20248;-80
2024/03/19 01:09:05;;;;;;;16.47;4.47;;;11.10;99.90;;;;;;7284198;19;20244;-80
2024/03/19 01:11:34;;;;;;;11.97;4.10;;;11.00;99.90;;;;;;7286330;19;20261;-80
2024/03/19 01:13:59;;;;;;;13.40;4.33;;;10.90;99.90;;;;;;7285316;19;20184;-79
2024/03/19 01:16:26;;;;;;;15.57;5.40;;;10.90;99.90;;;;;;7285388;19;20189;-79
2024/03/19 01:18:52;;;;;;;13.30;4.50;;;10.90;99.90;;;;;;7282098;19;20196;-79
2024/03/19 01:21:18;;;;;;;17.67;5.03;;;11.00;99.90;;;;;;7284474;19;20189;-79
2024/03/19 01:23:46;;;;;;;12.97;4.57;;;11.00;99.90;;;;;;7285278;19;20193;-79
2024/03/19 01:26:12;;;;;;;18.50;4.80;;;11.00;99.90;;;;;;7284125;19;20356;-79
2024/03/19 01:28:38;;;;;;;13.93;4.90;;;11.10;99.90;;;;;;7284580;19;20305;-78
2024/03/19 01:31:04;;;;;;;16.17;4.87;;;11.00;99.90;;;;;;7307061;19;20203;-79
2024/03/19 01:33:29;;;;;;;14.23;4.63;;;11.10;99.90;;;;;;7282090;19;21019;-78
2024/03/19 01:35:56;;;;;;;13.13;4.50;;;11.10;99.90;;;;;;7283632;19;20214;-78
2024/03/19 01:38:24;;;;;;;14.03;4.23;;;11.20;99.90;;;;;;7285346;19;20209;-80
2024/03/19 01:40:51;;;;;;;15.53;4.40;;;11.30;99.90;;;;;;7284757;19;20195;-79
2024/03/19 01:43:21;;;;;;;17.77;4.60;;;11.50;99.90;;;;;;7284839;19;20221;-79
2024/03/19 01:46:15;;;;;;;13.07;4.97;;;11.60;99.90;;;;;;7281928;19;20257;-79
2024/03/19 01:48:41;;;;;;;15.87;4.43;;;11.70;99.90;;;;;;7262866;19;20205;-79
2024/03/19 01:51:08;;;;;;;13.60;4.40;;;11.80;99.90;;;;;;7293363;19;20195;-79
2024/03/19 01:53:34;;;;;;;18.13;4.73;;;11.80;99.90;;;;;;7309395;19;20194;-79
2024/03/19 01:56:00;;;;;;;13.60;4.33;;;11.60;99.90;;;;;;7281510;19;20198;-79
2024/03/19 01:58:30;;;;;;;12.60;4.47;;;11.40;99.90;;;;;;7284949;19;20202;-79
2024/03/19 02:00:56;;;;;;;17.40;4.60;;;11.30;99.90;;;;;;7283455;19;20197;-78
2024/03/19 02:03:22;;;;;;;14.40;4.43;;;11.10;99.90;;;;;;7284168;19;20541;-79
2024/03/19 02:05:48;;;;;;;16.07;4.10;;;11.10;99.90;;;;;;7283530;19;20195;-79
2024/03/19 02:08:14;;;;;;;14.97;4.40;;;11.10;99.90;;;;;;7284701;19;20669;-79
2024/03/19 02:10:41;;;;;;;17.70;4.70;;;11.00;99.90;;;;;;7283638;19;20194;-79
2024/03/19 02:13:07;;;;;;;15.07;4.50;;;11.00;99.90;;;;;;7294831;19;20299;-78
2024/03/19 02:15:33;;;;;;;15.87;4.63;;;11.00;99.90;;;;;;7304430;19;20197;-79
2024/03/19 02:17:59;;;;;;;13.93;4.33;;;11.00;99.90;;;;;;7279854;19;20238;-79
2024/03/19 02:20:25;;;;;;;13.23;4.33;;;11.00;99.90;;;;;;7281581;19;20194;-79
2024/03/19 02:22:50;;;;;;;16.40;4.13;;;10.90;99.90;;;;;;7281391;19;20193;-79
2024/03/19 02:25:16;;;;;;;14.33;4.13;;;11.00;99.90;;;;;;7283538;19;20193;-79
2024/03/19 02:27:46;;;;;;;16.73;4.80;;;11.00;99.90;;;;;;7282370;19;20186;-79
2024/03/19 02:30:13;;;;;;;16.37;4.43;;;11.00;99.90;;;;;;7281508;19;20324;-79
2024/03/19 02:32:39;;;;;;;14.07;4.30;;;11.00;99.90;;;;;;7280824;19;20563;-79
2024/03/19 02:35:06;;;;;;;16.77;4.00;;;11.00;99.90;;;;;;7304934;19;20193;-79
2024/03/19 02:37:32;;;;;;;17.40;4.03;;;11.00;99.90;;;;;;7283174;19;20196;-79
2024/03/19 02:39:59;;;;;;;12.10;3.90;;;11.10;99.90;;;;;;7281099;19;20185;-79
2024/03/19 02:42:25;;;;;;;14.93;4.20;;;11.10;99.90;;;;;;7282095;19;20877;-79
2024/03/19 02:44:51;;;;;;;15.80;4.20;;;11.00;99.90;;;;;;7292953;19;20197;-79
2024/03/19 02:47:17;;;;;;;14.83;4.13;;;11.00;99.90;;;;;;7297261;19;20185;-79
2024/03/19 02:49:43;;;;;;;15.10;4.53;;;11.10;99.90;;;;;;7295581;19;20199;-79
2024/03/19 02:52:10;;;;;;;12.60;4.23;;;11.00;99.90;;;;;;7294930;19;20197;-79
2024/03/19 02:54:39;;;;;;;15.50;3.90;;;11.00;99.90;;;;;;7319371;19;20192;-79
2024/03/19 02:57:05;;;;;;;13.63;4.30;;;11.00;99.90;;;;;;7297026;19;20200;-79
2024/03/19 02:59:30;;;;;;;13.20;4.10;;;11.20;99.90;;;;;;7294343;19;20781;-78
2024/03/19 03:01:56;;;;;;;13.57;3.97;;;11.30;99.90;;;;;;7296466;19;20302;-79
2024/03/19 03:04:22;;;;;;;14.37;3.83;;;11.30;99.90;;;;;;7296030;19;20192;-79
2024/03/19 03:06:49;;;;;;;16.50;4.20;;;11.30;99.90;;;;;;7295442;19;20567;-79
2024/03/19 03:09:15;;;;;;;12.33;3.60;;;11.30;99.90;;;;;;7293485;19;20200;-79
2024/03/19 03:11:40;;;;;;;13.10;3.73;;;11.40;99.90;;;;;;7295093;19;20709;-79
2024/03/19 03:14:06;;;;;;;17.13;3.97;;;11.50;99.90;;;;;;7317786;19;20201;-79
2024/03/19 03:16:32;;;;;;;13.27;3.67;;;11.40;99.90;;;;;;7295693;19;20184;-79
2024/03/19 03:18:58;;;;;;;12.33;3.70;;;11.50;99.90;;;;;;7294955;19;20203;-79
2024/03/19 03:21:24;;;;;;;18.10;4.30;;;11.50;99.90;;;;;;7295421;19;20306;-79
2024/03/19 03:23:49;;;;;;;17.50;4.40;;;11.70;99.90;;;;;;7296818;19;20197;-79
2024/03/19 03:26:15;;;;;;;14.80;4.23;;;11.70;99.90;;;;;;7294440;19;20183;-79
2024/03/19 03:28:41;;;;;;;10.83;3.50;;;11.60;99.90;;;;;;7292340;19;20207;-79
2024/03/19 03:31:07;;;;;;;15.20;4.13;;;11.60;99.90;;;;;;7316766;19;20290;-79
2024/03/19 03:33:33;;;;;;;11.70;3.77;;;11.70;99.90;;;;;;7313620;19;20194;-80
2024/03/19 03:35:59;;;;;;;16.07;3.60;;;11.60;99.90;;;;;;7295804;19;20585;-79
2024/03/19 03:38:24;;;;;;;17.90;3.90;;;11.60;99.90;;;;;;7294152;19;20977;-79
2024/03/19 03:40:53;;;;;;;17.73;3.73;;;11.70;99.90;;;;;;7295846;19;20201;-80
2024/03/19 03:43:20;;;;;;;16.73;4.10;;;11.80;99.90;;;;;;7297030;19;20879;-80
2024/03/19 03:45:46;;;;;;;15.70;4.17;;;12.00;99.90;;;;;;7293548;19;20205;-79
2024/03/19 03:48:12;;;;;;;18.53;4.17;;;12.10;99.90;;;;;;7294149;19;20213;-79
2024/03/19 03:50:41;;;;;;;12.83;3.90;;;12.30;99.90;;;;;;7304216;19;20199;-79
2024/03/19 03:53:08;;;;;;;14.67;3.70;;;12.40;99.90;;;;;;7309255;19;20210;-80
2024/03/19 03:55:35;;;;;;;15.67;3.90;;;12.50;99.90;;;;;;7310670;19;20199;-80
2024/03/19 03:58:01;;;;;;;15.23;4.03;;;12.60;99.90;;;;;;7286880;19;20565;-80
2024/03/19 04:00:29;;;;;;;13.63;3.90;;;12.60;99.90;;;;;;7286864;19;20194;-80
2024/03/19 04:02:55;;;;;;;15.73;3.87;;;12.70;99.90;;;;;;7287321;19;20219;-80
2024/03/19 04:05:21;;;;;;;11.67;4.17;;;12.80;99.90;;;;;;7285810;19;20208;-80
2024/03/19 04:07:47;;;;;;;17.97;4.47;;;12.80;99.90;;;;;;7287231;19;20686;-80
2024/03/19 04:10:15;;;;;;;13.80;4.30;;;12.80;99.90;;;;;;7285752;19;20685;-80
2024/03/19 04:12:41;;;;;;;16.83;4.50;;;12.90;99.90;;;;;;7285848;19;20217;-79
2024/03/19 04:15:11;;;;;;;18.07;4.00;;;12.90;99.90;;;;;;7298398;19;20219;-79
2024/03/19 04:17:37;;;;;;;15.87;4.80;;;12.80;99.90;;;;;;7308802;19;20199;-79
2024/03/19 04:20:15;;;;;;;15.87;4.40;;;12.70;99.90;;;;;;7288421;19;20220;-79
2024/03/19 04:22:42;;;;;;;17.67;3.80;;;12.40;99.90;;;;;;7263916;19;20258;-80
2024/03/19 04:25:09;;;;;;;15.57;3.83;;;12.20;99.90;;;;;;7296378;19;20201;-80
2024/03/19 04:27:36;;;;;;;15.80;4.37;;;12.10;99.90;;;;;;7309470;19;20184;-80
2024/03/19 04:30:03;;;;;;;14.63;4.07;;;12.10;99.90;;;;;;7286422;19;20289;-79
2024/03/19 04:32:28;;;;;;;17.70;4.00;;;12.00;99.90;;;;;;7284780;19;20214;-80
2024/03/19 04:34:54;;;;;;;15.03;4.17;;;11.70;99.90;;;;;;7286471;19;20651;-80
2024/03/19 04:37:20;;;;;;;14.17;3.80;;;11.50;99.90;;;;;;7286199;19;20223;-80
2024/03/19 04:39:46;;;;;;;14.77;3.40;;;11.50;99.90;;;;;;7286666;19;20197;-80
2024/03/19 04:42:17;;;;;;;12.27;3.73;;;11.40;99.90;;;;;;7284816;19;20185;-80
2024/03/19 04:44:44;;;;;;;13.93;3.90;;;11.50;99.90;;;;;;7286207;19;20197;-80
2024/03/19 04:47:10;;;;;;;12.90;4.20;;;11.70;99.90;;;;;;7285295;19;20186;-80
2024/03/19 04:49:36;;;;;;;16.60;4.30;;;11.70;99.90;;;;;;7308408;19;20729;-81
2024/03/19 04:52:02;;;;;;;12.40;3.93;;;11.90;99.90;;;;;;7285667;19;20202;-81
2024/03/19 04:54:28;;;;;;;13.50;3.90;;;12.00;99.90;;;;;;7287326;19;20189;-79
2024/03/19 04:56:54;;;;;;;14.93;4.20;;;12.10;99.90;;;;;;7286352;19;20265;-78
2024/03/19 04:59:20;;;;;;;14.77;4.00;;;12.20;99.90;;;;;;7283639;19;20211;-78
2024/03/19 05:01:46;;;;;;;14.90;4.10;;;12.30;99.90;;;;;;7282994;19;20181;-78
2024/03/19 05:04:12;;;;;;;13.73;3.90;;;12.40;99.90;;;;;;7285713;19;20203;-79
2024/03/19 05:06:38;;;;;;;15.30;4.27;;;12.50;99.90;;;;;;7292729;19;20199;-78
2024/03/19 05:09:05;;;;;;;14.87;3.90;;;12.50;99.90;;;;;;7303175;19;20180;-79
2024/03/19 05:11:32;;;;;;;15.00;4.00;;;12.60;99.90;;;;;;7283164;19;21062;-79
2024/03/19 05:13:58;;;;;;;10.87;3.90;;;12.60;99.90;;;;;;7282914;19;20644;-78
2024/03/19 05:16:23;;;;;;;14.10;3.70;;;12.70;99.90;;;;;;7285521;19;20184;-80
2024/03/19 05:18:49;;;;;;;10.03;3.23;;;12.70;99.90;;;;;;7281042;19;20189;-78
2024/03/19 05:21:15;;;;;;;14.50;3.80;;;12.80;99.90;;;;;;7283640;19;20192;-79
2024/03/19 05:23:42;;;;;;;13.23;4.03;;;12.80;99.90;;;;;;7286600;19;20188;-80
2024/03/19 05:26:08;;;;;;;15.20;3.97;;;12.80;99.90;;;;;;7293013;19;20262;-79
2024/03/19 05:28:34;;;;;;;12.10;3.70;;;12.80;99.90;;;;;;7304373;19;20286;-79
2024/03/19 05:30:59;;;;;;;17.63;3.97;;;12.80;99.90;;;;;;7283567;19;20198;-79
2024/03/19 05:33:25;;;;;;;19.50;3.93;;;12.80;99.90;;;;;;7285188;19;20196;-80
2024/03/19 05:35:51;;;;;;;13.73;4.00;;;12.70;99.90;;;;;;7284217;19;20242;-80
2024/03/19 05:38:17;;;;;;;14.17;3.97;;;12.80;99.90;;;;;;7283684;19;20301;-79
2024/03/19 05:40:43;;;;;;;17.40;4.70;;;12.70;99.90;;;;;;7284842;19;20281;-79
2024/03/19 05:43:09;;;;;;;13.40;3.87;;;12.70;99.90;;;;;;7289644;19;20193;-80
2024/03/19 05:45:35;;;;;;;15.20;4.40;;;12.70;99.90;;;;;;7307861;19;20658;-80
2024/03/19 05:48:04;;;;;;;15.73;4.30;;;12.70;99.90;;;;;;7282182;19;20186;-79
2024/03/19 05:50:33;;;;;;;18.00;4.80;;;12.70;99.90;;;;;;7284953;19;20203;-79
2024/03/19 05:53:01;;;;;;;18.97;5.13;;;12.80;99.90;;;;;;7281518;19;20662;-78
2024/03/19 05:55:28;;;;;;;19.67;5.30;;;12.80;99.90;;;;;;7282439;19;20238;-80
2024/03/19 05:57:53;;;;;;;15.03;4.60;;;12.90;99.90;;;;;;7281401;19;20191;-79
2024/03/19 06:00:21;;;;;;;15.30;4.27;;;12.90;99.90;;;;;;7284740;19;20200;-79
2024/03/19 06:02:49;;;;;;;16.73;5.00;;;12.90;99.90;;;;;;7284024;19;20185;-78
2024/03/19 06:05:14;;;;;;;13.90;4.30;;;12.90;99.90;;;;;;7282758;19;20203;-80
2024/03/19 06:07:40;;;;;;;16.53;4.80;;;12.90;99.90;;;;;;7283051;19;20201;-79
2024/03/19 06:10:08;;;;;;;15.10;4.70;;;13.00;99.90;;;;;;7308731;19;20203;-79
2024/03/19 06:12:34;;;;;;;16.73;3.97;;;13.00;99.90;;;;;;7287605;19;20968;-79
2024/03/19 06:15:02;;;;;;;14.03;3.90;;;13.10;99.90;;;;;;7283430;19;20196;-81
2024/03/19 06:17:28;;;;;;;16.80;4.87;;;13.10;99.90;;;;;;7283785;19;20272;-78
2024/03/19 06:19:53;;;;;;;18.57;4.90;;;13.20;99.90;;;;;;7284518;19;20244;-78
2024/03/19 06:22:19;;;;;;;18.00;4.70;;;13.20;99.90;;;;;;7286138;19;20200;-78
2024/03/19 06:24:45;;;;;;;16.93;4.80;;;13.10;99.90;;;;;;7278768;19;20188;-79
2024/03/19 06:27:11;;;;;;;15.43;4.27;;;12.90;99.90;;;;;;7277554;19;20201;-79
2024/03/19 06:29:36;;;;;;;14.70;4.23;;;12.70;99.90;;;;;;7301459;19;20201;-79
2024/03/19 06:32:02;;;;;;;16.90;4.27;;;12.60;99.90;;;;;;7281700;19;20198;-80
2024/03/19 06:34:28;;;;;;;14.97;4.70;;;12.60;99.90;;;;;;7278427;19;20184;-79
2024/03/19 06:36:54;;;;;;;16.83;4.27;;;12.70;99.90;;;;;;7281717;19;20205;-79
2024/03/19 06:39:20;;;;;;;19.03;6.57;;;12.70;99.90;;;;;;7282035;19;20254;-79
2024/03/19 06:41:46;;;;;;;15.00;5.63;;;12.80;99.90;;;;;;7279815;19;20247;-79
2024/03/19 06:44:12;;;;;;;12.27;4.97;;;12.80;99.90;;;;;;7281625;19;20730;-82
2024/03/19 06:46:37;;;;;;;19.23;4.87;;;12.90;99.90;;;;;;7301042;19;20193;-79
2024/03/19 06:49:04;;;;;;;15.37;5.10;;;13.10;99.90;;;;;;7296843;19;20262;-80
2024/03/19 06:51:30;;;;;;;18.47;5.70;;;13.40;99.90;;;;;;7282958;19;20189;-81
2024/03/19 06:53:55;;;;;;;13.97;5.13;;;13.50;99.90;;;;;;7280689;19;20845;-79
2024/03/19 06:56:21;;;;;;;13.90;4.80;;;13.60;99.90;;;;;;7282038;19;20196;-80
2024/03/19 06:58:47;;;;;;;18.77;5.30;;;13.50;99.90;;;;;;7281935;19;20670;-83
2024/03/19 07:01:13;;;;;;;14.47;4.77;;;13.50;99.90;;;;;;7279934;19;20192;-77
2024/03/19 07:03:39;;;;;;;15.47;5.40;;;13.50;99.90;;;;;;7280576;19;20202;-78
2024/03/19 07:06:05;;;;;;;16.73;5.37;;;13.50;99.90;;;;;;7303617;19;20593;-78
2024/03/19 07:08:31;;;;;;;15.47;4.67;;;13.40;99.90;;;;;;7279764;19;20797;-78
2024/03/19 07:10:57;;;;;;;16.40;6.37;;;13.30;99.90;;;;;;7280933;19;20774;-78
2024/03/19 07:13:24;;;;;;;14.53;5.77;;;13.40;99.90;;;;;;7279692;19;20560;-78
2024/03/19 07:15:50;;;;;;;14.80;4.93;;;13.40;99.90;;;;;;7280781;19;20276;-78
2024/03/19 07:18:15;;;;;;;16.67;5.17;;;13.70;99.90;;;;;;7281812;19;20791;-78
2024/03/19 07:20:42;;;;;;;15.17;5.00;;;13.90;99.90;;;;;;7277941;19;20188;-79
2024/03/19 07:23:08;;;;;;;14.17;4.87;;;14.20;99.90;;;;;;7289378;19;20190;-78
2024/03/19 07:25:34;;;;;;;14.63;5.20;;;14.40;99.90;;;;;;7302763;19;20205;-78
2024/03/19 07:28:01;;;;;;;14.53;5.07;;;14.60;99.90;;;;;;7279129;19;20701;-79
2024/03/19 07:30:26;;;;;;;19.27;5.33;;;14.80;99.90;;;;;;7280093;19;20210;-79
2024/03/19 07:32:55;;;;;;;15.53;5.10;;;15.10;99.90;;;;;;7285010;19;20194;-79
2024/03/19 07:35:21;;;;;;;17.40;4.27;;;15.40;99.90;;;;;;7283890;19;20845;-80
2024/03/19 07:37:46;;;;;;;14.77;4.33;;;15.90;99.90;;;;;;7282852;19;20261;-79
2024/03/19 07:40:13;;;;;;;16.37;4.60;;;16.20;99.90;;;;;;7280626;19;20537;-79
2024/03/19 07:42:42;;;;;;;12.63;3.93;;;16.60;99.90;;;;;;7287901;19;20197;-78
2024/03/19 07:45:08;;;;;;;17.13;3.97;;;16.80;99.90;;;;;;7303007;19;20223;-79
2024/03/19 07:47:35;;;;;;;16.50;4.33;;;17.20;99.90;;;;;;7303821;19;20682;-78
2024/03/19 07:50:07;;;;;;;12.47;3.60;;;17.90;99.90;;;;;;7287147;19;20199;-78
2024/03/19 07:52:33;;;;;;;13.80;3.57;;;18.40;99.90;;;;;;7287661;19;20181;-78
2024/03/19 07:54:59;;;;;;;13.47;3.13;;;18.50;99.90;;;;;;7285091;19;20176;-78
2024/03/19 07:57:25;;;;;;;12.07;2.80;;;18.10;99.90;;;;;;7286117;19;20185;-78
2024/03/19 07:59:52;;;;;;;10.73;3.37;;;17.90;99.90;;;;;;7285086;19;20189;-78
2024/03/19 08:02:19;;;;;;;12.77;3.37;;;17.70;99.90;;;;;;7289085;19;20207;-78
2024/03/19 08:04:51;;;;;;;11.03;3.30;;;17.50;99.90;;;;;;7287909;19;20189;-79
2024/03/19 08:07:18;;;;;;;17.13;3.60;;;17.60;99.90;;;;;;7285404;19;20192;-78
2024/03/19 08:09:45;;;;;;;14.03;3.17;;;17.60;99.90;;;;;;7287514;19;20189;-78
2024/03/19 08:12:11;;;;;;;18.60;6.67;;;17.70;99.90;;;;;;7286628;19;20181;-79
2024/03/19 08:14:37;;;;;;;18.50;7.13;;;18.20;99.90;;;;;;7308725;19;20205;-79
2024/03/19 08:17:03;;;;;;;17.27;5.10;;;18.50;99.90;;;;;;7286719;19;20197;-78
2024/03/19 08:19:29;;;;;;;13.87;4.33;;;18.80;99.90;;;;;;7286134;19;20626;-78
2024/03/19 08:21:55;;;;;;;12.73;3.10;;;19.00;99.90;;;;;;7286018;19;20747;-79
2024/03/19 08:24:22;;;;;;;9.40;2.60;;;19.20;99.90;;;;;;7286650;19;20200;-79
2024/03/19 08:26:48;;;;;;;8.23;2.50;;;19.30;99.90;;;;;;7284670;19;20217;-78
2024/03/19 08:29:14;;;;;;;13.27;3.03;;;18.80;99.90;;;;;;7285808;19;20242;-79
2024/03/19 08:31:40;;;;;;;10.30;2.73;;;18.40;99.90;;;;;;7286073;19;20739;-79
2024/03/19 08:34:06;;;;;;;9.27;2.50;;;18.10;99.90;;;;;;7305800;19;20189;-79
2024/03/19 08:36:32;;;;;;;14.63;3.23;;;18.10;99.90;;;;;;7284985;19;20293;-79
2024/03/19 08:38:59;;;;;;;8.80;2.80;;;18.10;99.90;;;;;;7286826;19;20203;-78
2024/03/19 08:41:25;;;;;;;13.00;3.03;;;18.30;99.90;;;;;;7284679;19;20527;-79
2024/03/19 08:43:51;;;;;;;11.90;2.80;;;18.20;99.90;;;;;;7285233;19;20184;-78
2024/03/19 08:46:20;;;;;;;10.80;2.57;;;18.10;99.90;;;;;;7285415;19;20197;-79
2024/03/19 08:48:46;;;;;;;8.70;2.70;;;18.40;99.90;;;;;;7284542;19;20181;-79
2024/03/19 08:51:13;;;;;;;12.03;2.93;;;18.60;99.90;;;;;;7285551;19;20185;-79
2024/03/19 08:53:39;;;;;;;11.73;3.03;;;19.30;99.90;;;;;;7294328;19;20199;-79
2024/03/19 08:56:05;;;;;;;10.60;2.87;;;19.40;99.90;;;;;;7307046;19;20198;-79
2024/03/19 08:58:31;;;;;;;9.53;3.17;;;19.60;99.90;;;;;;7285868;19;20221;-79
2024/03/19 09:00:57;;;;;;;10.57;2.80;;;19.70;99.90;;;;;;7284791;19;20194;-79
2024/03/19 09:03:23;;;;;;;13.10;2.80;;;19.50;99.90;;;;;;7285461;19;20189;-79
2024/03/19 09:05:58;;;;;;;10.37;2.70;;;19.60;99.90;;;;;;7285758;19;20550;-79
2024/03/19 09:08:24;;;;;;;9.80;3.17;;;19.50;99.90;;;;;;7284026;19;20760;-79
2024/03/19 09:10:52;;;;;;;12.37;3.40;;;19.60;99.90;;;;;;7285798;19;20630;-79
2024/03/19 09:13:18;;;;;;;11.00;3.27;;;19.80;99.90;;;;;;7284365;19;20187;-79
2024/03/19 09:15:44;;;;;;;14.70;3.30;;;19.90;99.90;;;;;;7285401;19;20187;-79
2024/03/19 09:18:10;;;;;;;8.90;3.00;;;20.10;99.90;;;;;;7284976;19;20212;-79
2024/03/19 09:20:36;;;;;;;12.63;3.37;;;20.30;99.90;;;;;;7304886;19;20305;-79
2024/03/19 09:23:01;;;;;;;12.67;3.23;;;20.40;99.90;;;;;;7283419;19;20224;-79
2024/03/19 09:25:27;;;;;;;13.73;3.10;;;20.50;99.90;;;;;;7285990;19;22980;-79
2024/03/19 09:27:53;;;;;;;12.23;3.20;;;20.50;99.90;;;;;;7284342;19;20189;-79
2024/03/19 09:30:19;;;;;;;8.90;3.20;;;20.30;99.90;;;;;;7283007;19;20236;-79
2024/03/19 09:32:44;;;;;;;15.40;3.10;;;20.30;99.90;;;;;;7282931;19;20229;-79
2024/03/19 09:35:10;;;;;;;13.07;3.20;;;20.40;99.90;;;;;;7285391;19;20190;-79
2024/03/19 09:37:36;;;;;;;13.13;3.13;;;20.70;99.90;;;;;;7307368;19;20200;-79
2024/03/19 09:40:03;;;;;;;12.93;3.40;;;21.10;99.90;;;;;;7282020;19;20189;-79
2024/03/19 09:42:29;;;;;;;9.80;3.13;;;21.10;99.90;;;;;;7284504;19;20601;-79
2024/03/19 09:44:55;;;;;;;12.57;3.67;;;21.20;99.90;;;;;;7286173;19;20190;-79
2024/03/19 09:47:22;;;;;;;12.03;3.40;;;21.20;99.90;;;;;;7284638;19;20292;-79
2024/03/19 09:49:48;;;;;;;10.43;3.10;;;21.00;99.90;;;;;;7280510;19;20203;-79
2024/03/19 09:52:15;;;;;;;12.37;3.43;;;20.90;99.90;;;;;;7284234;19;20249;-79
2024/03/19 09:54:41;;;;;;;10.83;3.43;;;20.70;99.90;;;;;;7281155;19;20200;-79
2024/03/19 09:57:16;;;;;;;9.93;3.00;;;20.70;99.90;;;;;;7304198;19;20190;-79
2024/03/19 09:59:46;;;;;;;11.47;3.17;;;20.70;99.90;;;;;;7260966;19;20197;-79
2024/03/19 10:02:19;;;;;;;10.23;2.87;;;20.90;99.90;;;;;;7282671;19;20195;-79
2024/03/19 10:04:49;;;;;;;11.07;2.73;;;22.10;99.90;;;;;;7285281;19;21016;-79
2024/03/19 10:07:19;;;;;;;11.47;2.97;;;23.60;99.90;;;;;;7279994;19;20698;-79
2024/03/19 10:09:51;;;;;;;9.97;2.60;;;24.60;99.90;;;;;;7279817;19;20241;-80
2024/03/19 10:12:22;;;;;;;11.97;2.97;;;26.10;99.90;;;;;;7282377;19;20193;-80
2024/03/19 10:14:48;;;;;;;12.35;2.80;;;27.90;99.90;;;;;;7283299;19;20385;-79
2024/03/19 10:17:14;;;;;;;10.55;2.85;;;28.50;99.90;;;;;;7283331;19;20199;-80
2024/03/19 10:19:40;;;;;;;11.60;2.97;;;28.50;99.90;;;;;;7281855;19;20235;-80
2024/03/19 10:22:10;;;;;;;11.18;2.58;;;28.40;99.90;;;;;;7304283;19;20648;-80
2024/03/19 10:24:36;;;;;;;11.55;3.03;;;29.00;99.90;;;;;;7283153;19;20185;-80
2024/03/19 10:27:06;;;;;;;9.60;2.53;;;29.30;99.90;;;;;;7282223;19;20191;-80
2024/03/19 10:29:34;;;;;;;9.57;2.85;;;30.00;98.20;;;;;;7279173;19;20203;-80
2024/03/19 10:31:59;;;;;;;9.25;2.97;;;29.30;96.60;;;;;;7281233;19;20209;-80
2024/03/19 10:34:25;;;;;;;10.57;2.72;;;29.20;98.20;;;;;;7281564;19;20716;-80
2024/03/19 10:36:52;;;;;;;9.73;2.92;;;29.20;96.90;;;;;;7281172;19;20986;-80
2024/03/19 10:39:20;;;;;;;10.20;2.78;;;28.00;96.10;;;;;;7281319;19;20188;-80
2024/03/19 10:41:53;;;;;;;10.75;2.78;;;27.50;97.60;;;;;;7282931;19;20185;-80
2024/03/19 10:44:21;;;;;;;8.30;2.97;;;28.10;97.50;;;;;;7281932;19;20205;-79
2024/03/19 10:46:49;;;;;;;10.45;3.15;;;28.70;96.20;;;;;;7281092;19;20647;-80
2024/03/19 10:49:19;;;;;;;12.88;2.80;;;28.70;95.90;;;;;;7281976;19;20691;-80
2024/03/19 10:51:52;;;;;;;10.90;2.80;;;28.50;95.60;;;;;;7282703;19;20195;-80
2024/03/19 10:54:21;;;;;;;8.70;3.05;;;28.60;96.10;;;;;;7279704;19;20690;-80
2024/03/19 10:56:49;;;;;;;11.45;2.85;;;27.80;95.30;;;;;;7280490;19;20192;-80
2024/03/19 10:59:15;;;;;;;10.20;2.80;;;27.60;96.80;;;;;;7280730;19;20196;-80
2024/03/19 11:01:54;;;;;;;10.45;3.35;;;28.80;96.30;;;;;;7280476;19;20595;-80
2024/03/19 11:04:26;;;;;;;12.68;3.33;;;29.80;94.10;;;;;;7279285;19;20226;-80
2024/03/19 11:06:55;;;;;;;9.77;2.88;;;31.00;92.90;;;;;;7287727;19;20424;-81
2024/03/19 11:09:24;;;;;;;10.07;2.97;;;31.70;91.70;;;;;;7288832;19;20200;-80
2024/03/19 11:11:51;;;;;;;12.02;2.92;;;32.10;87.50;;;;;;7284778;19;20203;-80
2024/03/19 11:14:18;;;;;;;10.30;3.00;;;31.40;90.30;;;;;;7285746;19;20707;-82
2024/03/19 11:16:46;;;;;;;8.15;2.80;;;31.90;87.70;;;;;;7289453;19;20307;-80
2024/03/19 11:19:18;;;;;;;10.07;2.80;;;32.60;87.30;;;;;;7289399;19;20217;-81
2024/03/19 11:21:47;;;;;;;9.65;2.58;;;33.30;82.30;;;;;;7285812;19;20193;-81
2024/03/19 11:24:29;;;;;;;9.98;2.55;;;33.90;81.50;;;;;;7295371;19;20180;-80
2024/03/19 11:27:00;;;;;;;10.90;3.08;;;33.60;78.20;;;;;;7292334;19;20265;-81
2024/03/19 11:29:28;;;;;;;10.20;2.70;;;33.10;79.90;;;;;;7287013;19;20197;-81
2024/03/19 11:31:57;;;;;;;7.18;2.10;;;33.30;76.60;;;;;;7286962;19;20529;-81
2024/03/19 11:34:24;;;;;;;12.70;2.60;;;31.90;76.00;;;;;;7286941;19;21849;-81
2024/03/19 11:36:51;;;;;;;9.70;2.70;;;31.70;78.00;;;;;;7289481;19;20189;-81
2024/03/19 11:39:18;;;;;;;7.63;2.40;;;30.90;77.70;;;;;;7287578;19;20207;-81
2024/03/19 11:41:44;;;;;;;9.98;2.47;;;30.40;78.60;;;;;;7286170;19;20192;-80
2024/03/19 11:44:21;;;;;;;11.07;3.00;;;29.10;81.60;;;;;;7292228;19;20209;-80
2024/03/19 11:46:51;;;;;;;10.45;2.90;;;28.00;84.30;;;;;;7288906;19;20196;-80
2024/03/19 11:49:30;;;;;;;10.07;2.63;;;27.90;86.50;;;;;;7285717;19;20188;-81
2024/03/19 11:51:56;;;;;;;8.75;3.03;;;27.60;88.10;;;;;;7287089;19;20193;-80
2024/03/19 11:54:22;;;;;;;10.45;3.13;;;27.00;89.00;;;;;;7287373;19;20225;-81
2024/03/19 11:56:49;;;;;;;9.18;3.08;;;27.60;90.30;;;;;;7286742;19;20652;-80
2024/03/19 11:59:14;;;;;;;6.95;2.40;;;27.80;90.20;;;;;;7285653;19;20217;-80
2024/03/19 12:01:40;;;;;;;12.90;3.00;;;26.90;91.10;;;;;;7287774;19;20189;-79
2024/03/19 12:04:08;;;;;;;12.05;2.88;;;26.30;91.00;;;;;;7311051;19;20189;-80
2024/03/19 12:06:34;;;;;;;10.53;2.90;;;25.40;92.00;;;;;;7287420;19;20218;-80
2024/03/19 12:08:59;;;;;;;10.57;3.03;;;25.10;93.70;;;;;;7286593;19;20190;-79
2024/03/19 12:11:25;;;;;;;9.17;2.10;;;25.00;93.60;;;;;;7286086;19;20213;-79
2024/03/19 12:13:51;;;;;;;11.47;2.33;;;24.80;93.30;;;;;;7286005;19;20199;-79
2024/03/19 12:16:17;;;;;;;7.93;2.43;;;24.60;94.90;;;;;;7286260;19;21080;-80
2024/03/19 12:18:43;;;;;;;7.87;2.47;;;24.60;94.50;;;;;;7283815;19;20188;-79
2024/03/19 12:21:14;;;;;;;10.40;2.90;;;23.90;95.50;;;;;;7302916;19;20195;-79
2024/03/19 12:23:40;;;;;;;8.40;2.60;;;23.50;96.20;;;;;;7290778;19;20195;-79
2024/03/19 12:26:10;;;;;;;8.50;2.60;;;23.20;97.90;;;;;;7309156;19;20190;-79
2024/03/19 12:28:39;;;;;;;9.60;2.40;;;22.80;99.60;;;;;;7283701;19;20206;-80
2024/03/19 12:31:05;;;;;;;11.57;2.20;;;23.00;99.80;;;;;;7288156;19;20197;-79
2024/03/19 12:33:40;;;;;;;9.53;2.43;;;23.40;99.10;;;;;;7285417;19;20804;-79
2024/03/19 12:36:07;;;;;;;8.10;2.57;;;23.10;98.60;;;;;;7285846;19;20186;-80